createdAt,value
2018-01-06T00:00:27.118Z,20.82
2018-01-06T00:00:55.564Z,20.88
2018-01-06T00:01:23.642Z,20.8
2018-01-06T00:02:06.638Z,20.84
2018-01-06T00:02:35.691Z,20.84
2018-01-06T00:06:25.821Z,20.77
2018-01-06T00:06:55.404Z,20.84
2018-01-06T00:09:19.425Z,20.7
2018-01-06T00:10:02.399Z,20.67
2018-01-06T00:11:00.729Z,20.72
2018-01-06T00:11:34.057Z,20.85
2018-01-06T00:12:32.484Z,20.85
2018-01-06T00:13:01.814Z,20.84
2018-01-06T00:14:18.987Z,20.8
2018-01-06T00:15:02.311Z,20.84
2018-01-06T00:15:30.364Z,20.8
2018-01-06T00:15:59.731Z,20.8
2018-01-06T00:16:29.312Z,20.85
2018-01-06T00:18:24.279Z,20.8
2018-01-06T00:18:53.862Z,20.87
2018-01-06T00:19:47.508Z,20.82
2018-01-06T00:20:44.612Z,20.79
2018-01-06T00:21:12.650Z,20.82
2018-01-06T00:21:56.840Z,20.77
2018-01-06T00:22:40.173Z,20.79
2018-01-06T00:23:20.104Z,20.87
2018-01-06T00:24:32.499Z,20.8
2018-01-06T00:26:42.448Z,20.99
2018-01-06T00:27:10.945Z,20.85
2018-01-06T00:27:40.336Z,20.85
2018-01-06T00:28:09.448Z,20.91
2018-01-06T00:28:37.477Z,20.84
2018-01-06T00:29:06.066Z,20.8
2018-01-06T00:30:45.714Z,20.82
2018-01-06T00:31:29.642Z,20.8
2018-01-06T00:31:58.123Z,20.85
2018-01-06T00:32:27.381Z,20.84
2018-01-06T00:32:58.878Z,20.77
2018-01-06T00:33:27.487Z,20.76
2018-01-06T00:34:01.444Z,20.77
2018-01-06T00:34:29.810Z,20.76
2018-01-06T00:34:58.102Z,20.73
2018-01-06T00:36:09.944Z,20.7
2018-01-06T00:36:49.824Z,20.7
2018-01-06T00:37:19.104Z,20.69
2018-01-06T00:37:47.926Z,20.66
2018-01-06T00:38:19.796Z,20.66
2018-01-06T00:39:03.932Z,20.76
2018-01-06T00:39:46.505Z,20.72
2018-01-06T00:40:14.542Z,20.7
2018-01-06T00:40:44.346Z,20.82
2018-01-06T00:42:40.697Z,20.66
2018-01-06T00:43:33.612Z,20.66
2018-01-06T00:44:02.986Z,20.69
2018-01-06T00:44:30.910Z,20.69
2018-01-06T00:45:02.024Z,20.73
2018-01-06T00:46:42.856Z,20.67
2018-01-06T00:47:11.218Z,20.69
2018-01-06T00:47:39.297Z,20.7
2018-01-06T00:48:07.539Z,20.73
2018-01-06T00:48:36.450Z,20.7
2018-01-06T00:49:20.031Z,20.69
2018-01-06T00:49:48.703Z,20.72
2018-01-06T00:50:17.922Z,20.7
2018-01-06T00:50:46.730Z,20.66
2018-01-06T00:53:24.995Z,20.64
2018-01-06T00:54:51.885Z,20.7
2018-01-06T00:55:21.318Z,20.66
2018-01-06T00:55:50.173Z,20.66
2018-01-06T00:56:18.846Z,20.66
2018-01-06T00:57:30.854Z,20.66
2018-01-06T00:59:12.828Z,20.55
2018-01-06T01:00:24.518Z,20.59
2018-01-06T01:00:52.797Z,20.64
2018-01-06T01:01:21.759Z,20.66
2018-01-06T01:01:50.998Z,20.73
2018-01-06T01:02:20.118Z,20.62
2018-01-06T01:02:49.637Z,20.67
2018-01-06T01:03:33.573Z,20.66
2018-01-06T01:04:02.325Z,20.66
2018-01-06T01:04:31.627Z,20.58
2018-01-06T01:06:26.574Z,20.74
2018-01-06T01:07:09.914Z,20.69
2018-01-06T01:07:38.773Z,20.77
2018-01-06T01:08:07.920Z,20.72
2018-01-06T01:09:04.874Z,20.74
2018-01-06T01:10:45.485Z,20.67
2018-01-06T01:11:54.507Z,20.7
2018-01-06T01:12:22.979Z,20.67
2018-01-06T01:15:43.671Z,20.69
2018-01-06T01:16:12.928Z,20.73
2018-01-06T01:16:40.899Z,20.74
2018-01-06T01:17:09.353Z,20.73
2018-01-06T01:17:38.177Z,20.74
2018-01-06T01:18:06.885Z,20.66
2018-01-06T01:20:02.000Z,20.76
2018-01-06T01:20:29.921Z,20.79
2018-01-06T01:20:58.338Z,20.72
2018-01-06T01:21:27.272Z,20.76
2018-01-06T01:21:55.764Z,20.74
2018-01-06T01:22:33.976Z,20.72
2018-01-06T01:23:07.274Z,20.7
2018-01-06T01:23:35.657Z,20.77
2018-01-06T01:24:47.427Z,20.82
2018-01-06T01:25:15.482Z,20.85
2018-01-06T01:25:53.843Z,20.8
2018-01-06T01:26:22.787Z,20.82
2018-01-06T01:26:51.577Z,20.82
2018-01-06T01:27:20.455Z,20.8
2018-01-06T01:29:16.386Z,20.8
2018-01-06T01:32:09.918Z,20.73
2018-01-06T01:33:15.397Z,20.72
2018-01-06T01:33:43.758Z,20.69
2018-01-06T01:34:13.795Z,20.66
2018-01-06T01:34:41.918Z,20.72
2018-01-06T01:35:10.409Z,20.72
2018-01-06T01:35:39.165Z,20.7
2018-01-06T01:37:48.875Z,20.69
2018-01-06T01:38:19.557Z,20.77
2018-01-06T01:38:47.512Z,20.82
2018-01-06T01:39:30.846Z,20.85
2018-01-06T01:39:58.883Z,20.79
2018-01-06T01:40:27.987Z,20.92
2018-01-06T01:40:56.546Z,20.87
2018-01-06T01:41:26.510Z,20.82
2018-01-06T01:41:55.321Z,20.82
2018-01-06T01:42:24.299Z,20.87
2018-01-06T01:42:52.275Z,20.82
2018-01-06T01:43:20.741Z,20.85
2018-01-06T01:44:04.075Z,20.85
2018-01-06T01:44:32.183Z,20.85
2018-01-06T01:45:00.650Z,20.89
2018-01-06T01:45:28.699Z,20.88
2018-01-06T01:45:57.614Z,20.85
2018-01-06T01:46:36.746Z,20.98
2018-01-06T01:47:04.807Z,20.92
2018-01-06T01:47:33.268Z,20.92
2018-01-06T01:48:02.095Z,20.89
2018-01-06T01:48:30.399Z,20.94
2018-01-06T01:49:00.306Z,20.94
2018-01-06T01:49:28.360Z,20.94
2018-01-06T01:49:57.091Z,20.89
2018-01-06T01:50:25.137Z,20.89
2018-01-06T01:50:54.024Z,20.95
2018-01-06T01:51:22.386Z,20.94
2018-01-06T01:51:52.480Z,20.97
2018-01-06T01:52:20.546Z,20.95
2018-01-06T01:52:49.392Z,20.92
2018-01-06T01:53:17.726Z,20.97
2018-01-06T01:53:47.732Z,20.95
2018-01-06T01:54:17.006Z,20.98
2018-01-06T01:54:45.014Z,20.94
2018-01-06T01:55:14.495Z,21.03
2018-01-06T01:55:43.059Z,21.01
2018-01-06T01:56:13.401Z,20.99
2018-01-06T01:57:11.252Z,20.95
2018-01-06T01:57:39.773Z,20.94
2018-01-06T01:58:07.784Z,20.95
2018-01-06T01:59:05.872Z,20.92
2018-01-06T01:59:34.569Z,20.95
2018-01-06T02:00:32.155Z,20.94
2018-01-06T02:01:00.597Z,20.94
2018-01-06T02:03:52.281Z,21.01
2018-01-06T02:04:21.161Z,20.98
2018-01-06T02:04:50.027Z,20.97
2018-01-06T02:06:30.539Z,20.99
2018-01-06T02:07:00.047Z,20.98
2018-01-06T02:07:28.121Z,21.01
2018-01-06T02:09:23.499Z,21.07
2018-01-06T02:09:51.749Z,21.01
2018-01-06T02:10:20.906Z,20.97
2018-01-06T02:10:48.936Z,21.01
2018-01-06T02:12:43.727Z,20.99
2018-01-06T02:13:27.283Z,20.99
2018-01-06T02:14:10.773Z,21.04
2018-01-06T02:14:39.829Z,21.01
2018-01-06T02:15:08.379Z,20.94
2018-01-06T02:17:50.728Z,20.99
2018-01-06T02:18:19.616Z,20.98
2018-01-06T02:18:47.690Z,20.95
2018-01-06T02:20:00.975Z,20.97
2018-01-06T02:20:58.052Z,20.99
2018-01-06T02:22:38.941Z,21.07
2018-01-06T02:23:37.945Z,20.99
2018-01-06T02:24:05.868Z,20.99
2018-01-06T02:24:35.457Z,20.97
2018-01-06T02:25:03.540Z,21.01
2018-01-06T02:26:31.509Z,21.03
2018-01-06T02:26:59.787Z,21.06
2018-01-06T02:27:30.254Z,21.04
2018-01-06T02:27:58.274Z,21.03
2018-01-06T02:29:10.222Z,21.06
2018-01-06T02:29:53.915Z,21.12
2018-01-06T02:30:36.875Z,21.03
2018-01-06T02:32:49.569Z,21.03
2018-01-06T02:33:23.476Z,21.03
2018-01-06T02:34:20.551Z,21.01
2018-01-06T02:34:49.754Z,21.07
2018-01-06T02:35:33.683Z,21.03
2018-01-06T02:36:04.118Z,20.99
2018-01-06T02:36:32.411Z,21.09
2018-01-06T02:38:58.356Z,21.13
2018-01-06T02:39:27.181Z,21.1
2018-01-06T02:40:25.870Z,21.07
2018-01-06T02:40:55.465Z,21.16
2018-01-06T02:41:24.035Z,21.1
2018-01-06T02:42:21.093Z,21.17
2018-01-06T02:43:34.281Z,21.1
2018-01-06T02:44:03.036Z,21.13
2018-01-06T02:44:31.012Z,21.17
2018-01-06T02:45:00.268Z,21.19
2018-01-06T02:45:28.968Z,21.19
2018-01-06T02:45:57.329Z,21.19
2018-01-06T02:47:37.454Z,21.25
2018-01-06T02:48:06.279Z,21.21
2018-01-06T02:48:34.790Z,21.22
2018-01-06T02:49:02.843Z,21.25
2018-01-06T02:49:30.869Z,21.22
2018-01-06T02:50:00.268Z,21.21
2018-01-06T02:50:28.244Z,21.22
2018-01-06T02:50:57.091Z,21.28
2018-01-06T02:52:23.858Z,21.28
2018-01-06T02:54:18.821Z,21.22
2018-01-06T02:55:45.192Z,21.19
2018-01-06T02:56:43.058Z,21.17
2018-01-06T02:57:11.948Z,21.22
2018-01-06T02:57:40.583Z,21.19
2018-01-06T02:58:46.940Z,21.28
2018-01-06T02:59:15.618Z,21.29
2018-01-06T02:59:44.488Z,21.32
2018-01-06T03:00:13.097Z,21.28
2018-01-06T03:00:43.162Z,21.32
2018-01-06T03:01:26.113Z,21.28
2018-01-06T03:06:29.465Z,21.22
2018-01-06T03:06:59.553Z,21.31
2018-01-06T03:07:29.351Z,21.25
2018-01-06T03:07:58.129Z,21.25
2018-01-06T03:08:26.172Z,21.22
2018-01-06T03:12:45.565Z,21.22
2018-01-06T03:13:28.896Z,21.19
2018-01-06T03:13:57.882Z,21.25
2018-01-06T03:14:27.278Z,21.21
2018-01-06T03:14:55.568Z,21.25
2018-01-06T03:15:23.561Z,21.29
2018-01-06T03:17:18.707Z,21.22
2018-01-06T03:17:46.660Z,21.32
2018-01-06T03:18:14.685Z,21.22
2018-01-06T03:18:42.970Z,21.21
2018-01-06T03:19:12.778Z,21.21
2018-01-06T03:19:40.748Z,21.25
2018-01-06T03:20:10.033Z,21.22
2018-01-06T03:20:40.522Z,21.25
2018-01-06T03:21:08.911Z,21.22
2018-01-06T03:22:38.929Z,21.22
2018-01-06T03:23:08.767Z,21.24
2018-01-06T03:25:03.574Z,21.21
2018-01-06T03:25:32.247Z,21.19
2018-01-06T03:26:00.682Z,21.19
2018-01-06T03:26:28.719Z,21.12
2018-01-06T03:27:12.073Z,21.1
2018-01-06T03:27:40.368Z,21.1
2018-01-06T03:28:08.896Z,21.19
2018-01-06T03:29:35.758Z,21.1
2018-01-06T03:30:19.629Z,21.07
2018-01-06T03:31:02.651Z,21.06
2018-01-06T03:31:31.758Z,21.07
2018-01-06T03:32:15.308Z,21.12
2018-01-06T03:33:37.241Z,21.13
2018-01-06T03:34:07.960Z,21.13
2018-01-06T03:35:35.188Z,21.1
2018-01-06T03:36:18.332Z,21.01
2018-01-06T03:36:47.154Z,21.06
2018-01-06T03:37:48.079Z,20.99
2018-01-06T03:38:31.820Z,21.06
2018-01-06T03:39:01.399Z,21.07
2018-01-06T03:39:31.477Z,21.01
2018-01-06T03:39:59.886Z,21.07
2018-01-06T03:41:09.469Z,21.09
2018-01-06T03:43:18.157Z,21.04
2018-01-06T03:44:02.153Z,21.07
2018-01-06T03:44:45.812Z,21.1
2018-01-06T03:45:15.155Z,21.1
2018-01-06T03:45:44.396Z,21.07
2018-01-06T03:46:13.629Z,21.09
2018-01-06T03:46:42.602Z,21.12
2018-01-06T03:48:22.905Z,21.04
2018-01-06T03:48:52.196Z,21.07
2018-01-06T03:49:21.058Z,21.09
2018-01-06T03:49:49.111Z,21.1
2018-01-06T03:50:17.165Z,21.1
2018-01-06T03:50:46.527Z,21.1
2018-01-06T03:53:08.797Z,21.09
2018-01-06T03:56:02.764Z,20.98
2018-01-06T03:56:30.854Z,21.01
2018-01-06T03:57:14.715Z,20.99
2018-01-06T03:57:43.115Z,20.95
2018-01-06T03:58:11.575Z,21.01
2018-01-06T03:58:55.614Z,21.03
2018-01-06T03:59:38.773Z,21.04
2018-01-06T04:00:25.364Z,20.99
2018-01-06T04:00:53.393Z,20.99
2018-01-06T04:01:37.113Z,20.92
2018-01-06T04:02:08.965Z,20.92
2018-01-06T04:02:53.110Z,20.95
2018-01-06T04:04:05.336Z,20.98
2018-01-06T04:04:33.584Z,20.91
2018-01-06T04:05:01.624Z,20.92
2018-01-06T04:05:50.308Z,20.95
2018-01-06T04:06:48.176Z,20.95
2018-01-06T04:07:30.729Z,20.99
2018-01-06T04:09:06.781Z,20.97
2018-01-06T04:09:34.805Z,20.89
2018-01-06T04:10:33.258Z,20.94
2018-01-06T04:12:43.652Z,20.95
2018-01-06T04:13:55.741Z,20.89
2018-01-06T04:14:39.575Z,20.95
2018-01-06T04:15:23.367Z,20.84
2018-01-06T04:15:52.188Z,20.89
2018-01-06T04:16:21.141Z,20.89
2018-01-06T04:16:50.397Z,20.88
2018-01-06T04:17:18.576Z,20.89
2018-01-06T04:18:16.056Z,20.88
2018-01-06T04:18:44.485Z,20.89
2018-01-06T04:19:19.361Z,20.91
2018-01-06T04:19:48.524Z,20.88
2018-01-06T04:21:14.439Z,20.88
2018-01-06T04:21:42.880Z,20.85
2018-01-06T04:23:12.456Z,20.84
2018-01-06T04:23:41.309Z,20.87
2018-01-06T04:24:09.376Z,20.84
2018-01-06T04:24:37.934Z,20.8
2018-01-06T04:25:20.831Z,20.84
2018-01-06T04:25:49.448Z,20.82
2018-01-06T04:26:18.321Z,20.8
2018-01-06T04:26:46.808Z,20.84
2018-01-06T04:28:42.434Z,20.8
2018-01-06T04:29:12.224Z,20.8
2018-01-06T04:29:41.372Z,20.88
2018-01-06T04:30:24.369Z,20.85
2018-01-06T04:32:19.862Z,20.8
2018-01-06T04:33:59.930Z,20.82
2018-01-06T04:34:28.016Z,20.82
2018-01-06T04:34:57.265Z,20.84
2018-01-06T04:35:39.851Z,20.87
2018-01-06T04:36:08.139Z,20.85
2018-01-06T04:36:36.976Z,20.87
2018-01-06T04:37:19.754Z,20.85
2018-01-06T04:37:47.836Z,20.88
2018-01-06T04:38:41.096Z,20.87
2018-01-06T04:39:11.170Z,20.84
2018-01-06T04:39:54.520Z,20.84
2018-01-06T04:40:22.950Z,20.85
2018-01-06T04:40:51.834Z,20.85
2018-01-06T04:41:49.307Z,20.88
2018-01-06T04:43:00.289Z,20.79
2018-01-06T04:43:29.287Z,20.8
2018-01-06T04:44:19.346Z,20.76
2018-01-06T04:44:47.866Z,20.88
2018-01-06T04:45:16.160Z,20.82
2018-01-06T04:47:07.320Z,20.87
2018-01-06T04:48:04.563Z,20.82
2018-01-06T04:49:46.436Z,20.89
2018-01-06T04:51:26.501Z,20.69
2018-01-06T04:51:54.668Z,20.72
2018-01-06T04:52:37.648Z,20.77
2018-01-06T04:53:36.303Z,20.87
2018-01-06T04:55:29.118Z,20.85
2018-01-06T04:57:24.408Z,20.84
2018-01-06T04:59:06.458Z,20.76
2018-01-06T04:59:36.224Z,20.84
2018-01-06T05:00:04.375Z,20.77
2018-01-06T05:00:48.365Z,20.84
2018-01-06T05:03:03.879Z,20.7
2018-01-06T05:03:48.134Z,20.84
2018-01-06T05:05:16.088Z,20.76
2018-01-06T05:05:58.522Z,20.7
2018-01-06T05:06:33.216Z,20.72
2018-01-06T05:07:31.077Z,20.69
2018-01-06T05:09:55.808Z,20.69
2018-01-06T05:10:24.242Z,20.69
2018-01-06T05:10:53.079Z,20.67
2018-01-06T05:11:34.601Z,20.54
2018-01-06T05:13:16.168Z,20.69
2018-01-06T05:13:59.945Z,20.69
2018-01-06T05:14:29.987Z,20.66
2018-01-06T05:16:19.326Z,20.64
2018-01-06T05:17:02.661Z,20.66
2018-01-06T05:17:31.209Z,20.66
2018-01-06T05:18:00.559Z,20.66
2018-01-06T05:18:34.788Z,20.61
2018-01-06T05:19:02.852Z,20.66
2018-01-06T05:19:46.972Z,20.64
2018-01-06T05:21:13.736Z,20.69
2018-01-06T05:23:09.127Z,20.62
2018-01-06T05:23:37.675Z,20.67
2018-01-06T05:24:50.438Z,20.66
2018-01-06T05:25:19.633Z,20.73
2018-01-06T05:25:48.625Z,20.62
2018-01-06T05:26:17.058Z,20.64
2018-01-06T05:27:30.078Z,20.52
2018-01-06T05:27:59.276Z,20.58
2018-01-06T05:28:29.399Z,20.64
2018-01-06T05:29:00.834Z,20.57
2018-01-06T05:29:35.634Z,20.59
2018-01-06T05:30:06.186Z,20.52
2018-01-06T05:30:34.635Z,20.52
2018-01-06T05:31:17.819Z,20.57
2018-01-06T05:31:46.359Z,20.57
2018-01-06T05:32:16.135Z,20.58
2018-01-06T05:32:44.499Z,20.58
2018-01-06T05:33:26.720Z,20.58
2018-01-06T05:34:10.869Z,20.58
2018-01-06T05:34:51.633Z,20.58
2018-01-06T05:35:34.484Z,20.55
2018-01-06T05:36:18.525Z,20.59
2018-01-06T05:37:01.527Z,20.62
2018-01-06T05:37:44.284Z,20.69
2018-01-06T05:38:16.154Z,20.67
2018-01-06T05:38:59.498Z,20.69
2018-01-06T05:39:27.543Z,20.69
2018-01-06T05:39:56.054Z,20.72
2018-01-06T05:40:24.493Z,20.7
2018-01-06T05:41:08.091Z,20.67
2018-01-06T05:42:19.468Z,20.72
2018-01-06T05:44:14.626Z,20.7
2018-01-06T05:45:41.757Z,20.73
2018-01-06T05:47:37.847Z,20.73
2018-01-06T05:48:06.309Z,20.66
2018-01-06T05:49:24.333Z,20.7
2018-01-06T05:49:54.261Z,20.73
2018-01-06T05:50:24.054Z,20.7
2018-01-06T05:50:52.528Z,20.73
2018-01-06T05:51:22.333Z,20.67
2018-01-06T05:52:06.557Z,20.72
2018-01-06T05:52:51.559Z,20.77
2018-01-06T05:54:48.116Z,20.69
2018-01-06T05:55:16.176Z,20.76
2018-01-06T05:55:44.627Z,20.64
2018-01-06T05:56:12.900Z,20.64
2018-01-06T05:56:48.082Z,20.67
2018-01-06T05:57:17.169Z,20.74
2018-01-06T05:57:46.230Z,20.72
2018-01-06T05:58:14.273Z,20.79
2018-01-06T06:00:01.413Z,20.66
2018-01-06T06:03:26.025Z,20.69
2018-01-06T06:03:54.534Z,20.72
2018-01-06T06:04:22.896Z,20.69
2018-01-06T06:04:51.454Z,20.7
2018-01-06T06:06:32.280Z,20.67
2018-01-06T06:07:00.922Z,20.61
2018-01-06T06:07:43.483Z,20.73
2018-01-06T06:08:12.139Z,20.66
2018-01-06T06:08:41.400Z,20.67
2018-01-06T06:09:38.487Z,20.66
2018-01-06T06:12:04.861Z,20.72
2018-01-06T06:12:33.719Z,20.73
2018-01-06T06:14:03.786Z,20.8
2018-01-06T06:15:32.285Z,20.77
2018-01-06T06:16:00.348Z,20.72
2018-01-06T06:16:52.992Z,20.74
2018-01-06T06:17:51.830Z,20.73
2018-01-06T06:18:20.250Z,20.72
2018-01-06T06:18:48.251Z,20.69
2018-01-06T06:19:31.155Z,20.72
2018-01-06T06:19:59.332Z,20.72
2018-01-06T06:20:59.319Z,20.69
2018-01-06T06:21:27.785Z,20.69
2018-01-06T06:21:56.230Z,20.73
2018-01-06T06:23:22.840Z,20.69
2018-01-06T06:23:51.884Z,20.72
2018-01-06T06:24:20.155Z,20.7
2018-01-06T06:24:49.163Z,20.77
2018-01-06T06:26:15.581Z,20.69
2018-01-06T06:26:43.613Z,20.79
2018-01-06T06:28:09.240Z,20.76
2018-01-06T06:28:53.022Z,20.84
2018-01-06T06:29:21.675Z,20.82
2018-01-06T06:30:04.658Z,20.84
2018-01-06T06:30:33.216Z,20.82
2018-01-06T06:31:45.294Z,20.87
2018-01-06T06:32:28.654Z,20.82
2018-01-06T06:32:58.000Z,20.8
2018-01-06T06:33:40.469Z,20.82
2018-01-06T06:34:08.926Z,20.8
2018-01-06T06:34:38.686Z,20.87
2018-01-06T06:36:11.605Z,20.82
2018-01-06T06:36:41.646Z,20.89
2018-01-06T06:37:31.692Z,20.79
2018-01-06T06:38:15.059Z,20.73
2018-01-06T06:40:45.131Z,20.82
2018-01-06T06:41:14.757Z,20.84
2018-01-06T06:41:57.364Z,20.87
2018-01-06T06:42:40.700Z,20.8
2018-01-06T06:43:10.193Z,20.85
2018-01-06T06:43:53.425Z,20.91
2018-01-06T06:44:38.448Z,20.92
2018-01-06T06:50:30.202Z,21.12
2018-01-06T06:51:13.833Z,21.1
2018-01-06T06:51:56.286Z,21.17
2018-01-06T06:53:52.084Z,21.24
2018-01-06T06:54:21.062Z,21.22
2018-01-06T06:54:49.031Z,21.12
2018-01-06T06:55:17.474Z,21.27
2018-01-06T06:56:03.113Z,21.24
2018-01-06T06:56:32.022Z,21.34
2018-01-06T06:57:16.545Z,21.14
2018-01-06T06:57:59.034Z,21.22
2018-01-06T07:00:45.938Z,21.21
2018-01-06T07:01:43.818Z,21.29
2018-01-06T07:02:41.403Z,21.29
2018-01-06T07:03:24.568Z,21.31
2018-01-06T07:04:22.428Z,21.32
2018-01-06T07:05:19.539Z,21.31
2018-01-06T07:05:48.157Z,21.29
2018-01-06T07:06:18.125Z,21.32
2018-01-06T07:06:46.989Z,21.35
2018-01-06T07:07:30.744Z,21.37
2018-01-06T07:07:58.797Z,21.29
2018-01-06T07:08:27.458Z,21.34
2018-01-06T07:08:55.541Z,21.28
2018-01-06T07:09:24.129Z,21.43
2018-01-06T07:10:28.248Z,21.29
2018-01-06T07:10:56.304Z,21.4
2018-01-06T07:11:53.790Z,21.46
2018-01-06T07:12:21.848Z,21.52
2018-01-06T07:12:49.885Z,21.58
2018-01-06T07:13:33.872Z,21.54
2018-01-06T07:14:01.903Z,21.56
2018-01-06T07:16:19.173Z,21.56
2018-01-06T07:16:48.372Z,21.59
2018-01-06T07:17:32.409Z,21.61
2018-01-06T07:18:00.442Z,21.56
2018-01-06T07:18:29.362Z,21.53
2018-01-06T07:19:40.998Z,21.59
2018-01-06T07:20:09.446Z,21.64
2018-01-06T07:20:38.210Z,21.53
2018-01-06T07:21:07.434Z,21.64
2018-01-06T07:21:36.163Z,21.61
2018-01-06T07:22:05.725Z,21.67
2018-01-06T07:22:34.103Z,21.65
2018-01-06T07:23:02.171Z,21.64
2018-01-06T07:23:31.489Z,21.62
2018-01-06T07:24:00.570Z,21.68
2018-01-06T07:24:43.269Z,21.58
2018-01-06T07:25:54.472Z,21.69
2018-01-06T07:26:42.280Z,21.65
2018-01-06T07:27:25.625Z,21.75
2018-01-06T07:28:38.000Z,21.69
2018-01-06T07:29:24.016Z,21.71
2018-01-06T07:30:08.716Z,21.79
2018-01-06T07:32:06.418Z,21.67
2018-01-06T07:32:36.662Z,21.68
2018-01-06T07:33:06.066Z,21.65
2018-01-06T07:33:50.404Z,21.75
2018-01-06T07:34:34.529Z,21.82
2018-01-06T07:35:04.194Z,21.69
2018-01-06T07:36:45.674Z,21.71
2018-01-06T07:38:13.248Z,21.68
2018-01-06T07:39:53.288Z,21.69
2018-01-06T07:41:34.585Z,21.72
2018-01-06T07:42:32.024Z,21.74
2018-01-06T07:43:00.981Z,21.75
2018-01-06T07:43:29.172Z,21.72
2018-01-06T07:43:58.390Z,21.72
2018-01-06T07:44:42.608Z,21.75
2018-01-06T07:45:11.707Z,21.74
2018-01-06T07:45:40.187Z,21.72
2018-01-06T07:46:08.610Z,21.8
2018-01-06T07:46:37.221Z,21.77
2018-01-06T07:47:19.787Z,21.75
2018-01-06T07:47:50.894Z,21.74
2018-01-06T07:48:34.239Z,21.79
2018-01-06T07:49:04.508Z,21.74
2018-01-06T07:49:47.562Z,21.62
2018-01-06T07:50:45.800Z,21.67
2018-01-06T07:51:28.942Z,21.67
2018-01-06T07:51:57.504Z,21.71
2018-01-06T07:52:25.519Z,21.69
2018-01-06T07:52:53.577Z,21.74
2018-01-06T07:53:21.599Z,21.69
2018-01-06T07:53:50.048Z,21.72
2018-01-06T07:54:33.832Z,21.79
2018-01-06T07:55:17.806Z,21.75
2018-01-06T07:56:59.898Z,21.88
2018-01-06T07:58:41.951Z,21.94
2018-01-06T07:59:26.165Z,22
2018-01-06T08:00:08.724Z,22.05
2018-01-06T08:00:37.293Z,22.09
2018-01-06T08:01:05.666Z,22.02
2018-01-06T08:01:34.534Z,22.02
2018-01-06T08:02:03.782Z,22.03
2018-01-06T08:02:49.549Z,22.02
2018-01-06T08:03:19.649Z,21.98
2018-01-06T08:04:03.311Z,21.94
2018-01-06T08:04:46.742Z,21.91
2018-01-06T08:05:15.127Z,21.92
2018-01-06T08:06:41.130Z,21.84
2018-01-06T08:07:25.509Z,21.8
2018-01-06T08:08:37.343Z,21.71
2018-01-06T08:09:05.929Z,21.74
2018-01-06T08:11:30.228Z,21.77
2018-01-06T08:12:42.120Z,21.72
2018-01-06T08:14:53.199Z,21.72
2018-01-06T08:15:44.108Z,21.65
2018-01-06T08:17:24.695Z,21.64
2018-01-06T08:17:52.737Z,21.54
2018-01-06T08:18:21.031Z,21.58
2018-01-06T08:18:48.998Z,21.58
2018-01-06T08:19:47.424Z,21.54
2018-01-06T08:20:44.338Z,21.58
2018-01-06T08:21:13.434Z,21.61
2018-01-06T08:21:41.468Z,21.54
2018-01-06T08:22:09.510Z,21.54
2018-01-06T08:24:05.878Z,21.53
2018-01-06T08:24:48.753Z,21.47
2018-01-06T08:25:16.844Z,21.43
2018-01-06T08:26:30.346Z,21.4
2018-01-06T08:27:14.043Z,21.4
2018-01-06T08:29:26.694Z,21.32
2018-01-06T08:30:11.247Z,21.29
2018-01-06T08:30:39.856Z,21.37
2018-01-06T08:31:08.356Z,21.35
2018-01-06T08:32:52.004Z,21.38
2018-01-06T08:33:36.773Z,21.37
2018-01-06T08:34:18.390Z,21.35
2018-01-06T08:35:16.222Z,21.37
2018-01-06T08:39:51.769Z,21.46
2018-01-06T08:41:47.601Z,21.49
2018-01-06T08:42:45.482Z,21.44
2018-01-06T08:48:15.483Z,21.43
2018-01-06T08:50:06.138Z,21.47
2018-01-06T08:50:34.180Z,21.53
2018-01-06T08:51:31.304Z,21.68
2018-01-06T08:52:44.096Z,21.54
2018-01-06T08:53:13.676Z,21.56
2018-01-06T08:53:58.140Z,21.61
2018-01-06T08:54:26.741Z,21.67
2018-01-06T08:56:22.135Z,21.67
2018-01-06T08:58:18.490Z,21.77
2018-01-06T09:01:56.773Z,21.83
2018-01-06T09:03:10.568Z,21.8
2018-01-06T09:04:37.579Z,21.91
2018-01-06T09:05:05.587Z,21.99
2018-01-06T09:05:34.076Z,21.99
2018-01-06T09:06:02.865Z,21.94
2018-01-06T09:06:31.479Z,22.02
2018-01-06T09:08:31.638Z,22.06
2018-01-06T09:09:14.232Z,22.07
2018-01-06T09:09:58.297Z,22.07
2018-01-06T09:10:41.327Z,22.18
2018-01-06T09:11:23.844Z,22.03
2018-01-06T09:11:51.883Z,22.17
2018-01-06T09:13:33.195Z,22.18
2018-01-06T09:14:04.285Z,22.2
2018-01-06T09:14:52.764Z,22.21
2018-01-06T09:15:36.151Z,22.14
2018-01-06T09:17:31.582Z,22.17
2018-01-06T09:18:29.225Z,22.21
2018-01-06T09:19:12.582Z,22.24
2018-01-06T09:19:55.113Z,22.24
2018-01-06T09:20:39.270Z,22.18
2018-01-06T09:21:28.592Z,22.18
2018-01-06T09:21:58.326Z,22.25
2018-01-06T09:23:13.882Z,22.25
2018-01-06T09:23:56.545Z,22.24
2018-01-06T09:24:45.349Z,22.15
2018-01-06T09:25:28.690Z,22.31
2018-01-06T09:26:41.818Z,22.36
2018-01-06T09:27:09.779Z,22.39
2018-01-06T09:28:07.297Z,22.54
2018-01-06T09:28:51.434Z,22.52
2018-01-06T09:29:19.491Z,22.55
2018-01-06T09:29:48.413Z,22.55
2018-01-06T09:30:16.427Z,22.64
2018-01-06T09:30:46.481Z,22.58
2018-01-06T09:31:15.885Z,22.64
2018-01-06T09:32:26.928Z,22.7
2018-01-06T09:32:56.566Z,22.75
2018-01-06T09:33:40.418Z,22.8
2018-01-06T09:35:22.022Z,22.88
2018-01-06T09:35:52.165Z,22.91
2018-01-06T09:36:50.070Z,22.9
2018-01-06T09:37:34.360Z,22.94
2018-01-06T09:39:16.317Z,23.02
2018-01-06T09:40:14.050Z,23.17
2018-01-06T09:40:43.021Z,23.13
2018-01-06T09:41:11.277Z,23.15
2018-01-06T09:41:41.904Z,23.13
2018-01-06T09:42:54.263Z,23.35
2018-01-06T09:43:51.385Z,23.39
2018-01-06T09:44:48.723Z,23.43
2018-01-06T09:45:33.805Z,23.51
2018-01-06T09:46:31.859Z,23.39
2018-01-06T09:48:28.287Z,23.47
2018-01-06T09:48:57.350Z,23.65
2018-01-06T09:49:26.614Z,23.6
2018-01-06T09:49:54.599Z,23.65
2018-01-06T09:50:26.540Z,23.75
2018-01-06T09:51:09.117Z,23.73
2018-01-06T09:51:51.726Z,23.79
2018-01-06T09:52:20.165Z,23.85
2018-01-06T09:53:03.786Z,23.78
2018-01-06T09:53:32.963Z,23.76
2018-01-06T09:54:59.186Z,23.61
2018-01-06T09:55:31.800Z,23.53
2018-01-06T09:56:14.361Z,23.47
2018-01-06T09:56:44.620Z,23.54
2018-01-06T09:57:12.720Z,23.47
2018-01-06T09:57:41.213Z,23.54
2018-01-06T09:58:24.460Z,23.47
2018-01-06T09:58:52.829Z,23.54
2018-01-06T10:00:04.995Z,23.58
2018-01-06T10:00:59.342Z,23.7
2018-01-06T10:01:58.835Z,23.66
2018-01-06T10:03:25.771Z,23.8
2018-01-06T10:05:22.465Z,23.6
2018-01-06T10:06:48.246Z,23.72
2018-01-06T10:07:45.969Z,23.69
2018-01-06T10:09:41.519Z,23.63
2018-01-06T10:10:09.554Z,23.54
2018-01-06T10:10:37.654Z,23.53
2018-01-06T10:11:06.101Z,23.53
2018-01-06T10:11:34.557Z,23.6
2018-01-06T10:12:03.044Z,23.61
2018-01-06T10:12:31.950Z,23.65
2018-01-06T10:13:00.370Z,23.63
2018-01-06T10:13:28.409Z,23.7
2018-01-06T10:14:11.752Z,23.8
2018-01-06T10:14:40.997Z,23.79
2018-01-06T10:15:09.261Z,23.84
2018-01-06T10:15:39.029Z,23.8
2018-01-06T10:16:07.064Z,23.8
2018-01-06T10:16:35.131Z,23.76
2018-01-06T10:17:03.947Z,23.83
2018-01-06T10:17:48.107Z,23.8
2018-01-06T10:18:34.538Z,23.85
2018-01-06T10:19:03.666Z,23.78
2018-01-06T10:19:31.713Z,23.69
2018-01-06T10:19:59.776Z,23.72
2018-01-06T10:20:28.738Z,23.79
2018-01-06T10:20:57.644Z,23.76
2018-01-06T10:21:26.195Z,23.8
2018-01-06T10:21:54.154Z,23.93
2018-01-06T10:22:22.208Z,23.9
2018-01-06T10:22:50.660Z,23.9
2018-01-06T10:23:18.681Z,23.78
2018-01-06T10:24:01.266Z,23.68
2018-01-06T10:25:28.528Z,23.66
2018-01-06T10:27:53.925Z,23.57
2018-01-06T10:28:22.760Z,23.48
2018-01-06T10:28:51.798Z,23.61
2018-01-06T10:29:21.712Z,23.68
2018-01-06T10:30:32.716Z,23.7
2018-01-06T10:31:16.832Z,23.4
2018-01-06T10:31:44.858Z,23.47
2018-01-06T10:32:28.449Z,23.43
2018-01-06T10:32:59.076Z,23.51
2018-01-06T10:33:41.996Z,23.6
2018-01-06T10:34:40.371Z,23.63
2018-01-06T10:35:09.841Z,23.75
2018-01-06T10:36:07.333Z,23.68
2018-01-06T10:36:35.595Z,23.61
2018-01-06T10:37:18.890Z,23.72
2018-01-06T10:38:12.997Z,23.79
2018-01-06T10:38:58.544Z,23.87
2018-01-06T10:39:26.622Z,23.91
2018-01-06T10:40:10.076Z,24.05
2018-01-06T10:40:55.390Z,24.13
2018-01-06T10:42:50.573Z,24.27
2018-01-06T10:43:33.957Z,24.34
2018-01-06T10:44:02.213Z,24.16
2018-01-06T10:44:31.911Z,24.09
2018-01-06T10:45:01.950Z,24.15
2018-01-06T10:45:29.970Z,24.1
2018-01-06T10:45:58.422Z,24.13
2018-01-06T10:46:26.874Z,24.15